createdAt,value
2023-04-09T00:02:12.825Z,0
2023-04-09T00:07:22.580Z,0
2023-04-09T00:12:30.910Z,0
2023-04-09T00:17:40.784Z,0
2023-04-09T00:22:49.140Z,0
2023-04-09T00:27:58.276Z,0
2023-04-09T00:33:08.019Z,0
2023-04-09T00:38:17.782Z,0
2023-04-09T00:43:27.546Z,0
2023-04-09T00:48:36.677Z,0
2023-04-09T00:53:45.182Z,0
2023-04-09T00:58:54.821Z,0
2023-04-09T01:04:04.027Z,0
2023-04-09T01:09:12.536Z,0
2023-04-09T01:14:20.986Z,0
2023-04-09T01:19:30.118Z,0
2023-04-09T01:24:38.588Z,0
2023-04-09T01:29:48.361Z,0
2023-04-09T01:34:58.108Z,0
2023-04-09T01:40:05.948Z,0
2023-04-09T01:45:15.716Z,0
2023-04-09T01:50:26.097Z,0
2023-04-09T01:55:35.228Z,0
2023-04-09T02:00:43.705Z,0
2023-04-09T02:05:52.805Z,0
2023-04-09T02:11:00.670Z,0
2023-04-09T02:16:09.970Z,0
2023-04-09T02:21:18.914Z,0
2023-04-09T02:26:28.700Z,0
2023-04-09T02:31:38.416Z,0
2023-04-09T02:36:49.471Z,0
2023-04-09T02:41:59.240Z,0
2023-04-09T02:47:08.973Z,0
2023-04-09T02:52:18.732Z,0
2023-04-09T02:57:28.521Z,0
2023-04-09T03:02:37.553Z,0
2023-04-09T03:07:47.450Z,0
2023-04-09T03:12:57.806Z,0
2023-04-09T03:18:09.024Z,0
2023-04-09T03:28:27.831Z,0
2023-04-09T03:33:36.828Z,0
2023-04-09T03:38:47.330Z,0
2023-04-09T03:43:55.839Z,0
2023-04-09T03:49:04.936Z,0
2023-04-09T03:54:12.698Z,0
2023-04-09T03:59:21.151Z,0
2023-04-09T04:04:30.577Z,0
2023-04-09T04:09:40.225Z,0
2023-04-09T04:14:49.798Z,0
2023-04-09T04:19:59.542Z,1
2023-04-09T04:25:08.046Z,4
2023-04-09T04:30:17.802Z,10
2023-04-09T04:35:26.341Z,23
2023-04-09T04:40:35.386Z,43
2023-04-09T04:45:45.934Z,73
2023-04-09T04:50:56.177Z,111
2023-04-09T04:56:04.698Z,165
2023-04-09T05:01:14.655Z,233
2023-04-09T05:06:24.821Z,309
2023-04-09T05:11:34.010Z,388
2023-04-09T05:16:41.974Z,461
2023-04-09T05:21:51.547Z,536
2023-04-09T05:27:00.684Z,614
2023-04-09T05:32:10.542Z,683
2023-04-09T05:37:18.909Z,770
2023-04-09T05:42:28.036Z,978
2023-04-09T05:47:36.565Z,1364
2023-04-09T05:52:45.015Z,1234
2023-04-09T05:57:54.109Z,2589
2023-04-09T06:03:03.762Z,2246
2023-04-09T06:08:12.347Z,2039
2023-04-09T06:13:21.529Z,2757
2023-04-09T06:18:29.962Z,2877
2023-04-09T06:23:40.373Z,1449
2023-04-09T06:28:50.117Z,1888
2023-04-09T06:33:59.874Z,6559
2023-04-09T06:39:08.347Z,3448
2023-04-09T06:44:17.458Z,4979
2023-04-09T06:49:27.880Z,4999
2023-04-09T06:54:37.644Z,3222
2023-04-09T06:59:47.368Z,5678
2023-04-09T07:04:56.548Z,3956
2023-04-09T07:10:06.548Z,5569
2023-04-09T07:15:15.633Z,5259
2023-04-09T07:20:24.499Z,5277
2023-04-09T07:25:34.583Z,1851
2023-04-09T07:30:42.169Z,1752
2023-04-09T07:35:50.737Z,1767
2023-04-09T07:41:00.987Z,1778
2023-04-09T07:46:09.664Z,1795
2023-04-09T07:51:17.928Z,1816
2023-04-09T07:56:28.396Z,1816
2023-04-09T08:01:37.082Z,1801
2023-04-09T08:06:46.596Z,1783
2023-04-09T08:11:55.105Z,1753
2023-04-09T08:17:04.996Z,1705
2023-04-09T08:22:13.957Z,1645
2023-04-09T08:27:23.072Z,1603
2023-04-09T08:32:32.405Z,1592
2023-04-09T08:37:41.320Z,1593
2023-04-09T08:42:51.074Z,1603
2023-04-09T08:48:00.058Z,1596
2023-04-09T08:53:08.670Z,1618
2023-04-09T08:58:18.427Z,1631
2023-04-09T09:03:28.578Z,1633
2023-04-09T09:08:36.011Z,1666
2023-04-09T09:13:44.527Z,1685
2023-04-09T09:18:55.070Z,1254
2023-04-09T09:24:02.735Z,2111
2023-04-09T09:29:11.864Z,2834
2023-04-09T09:34:20.376Z,2342
2023-04-09T09:39:28.821Z,1855
2023-04-09T09:44:37.940Z,1769
2023-04-09T09:49:48.348Z,1538
2023-04-09T09:54:56.827Z,1703
2023-04-09T10:00:06.605Z,1829
2023-04-09T10:05:15.718Z,2313
2023-04-09T10:10:25.490Z,1788
2023-04-09T10:15:34.795Z,2721
2023-04-09T10:20:44.355Z,2701
2023-04-09T10:25:53.510Z,3144
2023-04-09T10:31:03.375Z,2755
2023-04-09T10:36:13.258Z,3390
2023-04-09T10:41:22.797Z,2019
2023-04-09T10:46:32.018Z,1923
2023-04-09T10:51:41.630Z,2219
2023-04-09T10:56:50.740Z,3223
2023-04-09T11:01:59.644Z,2415
2023-04-09T11:07:09.644Z,2633
2023-04-09T11:12:19.396Z,2622
2023-04-09T11:17:27.972Z,2178
2023-04-09T11:22:38.292Z,2228
2023-04-09T11:27:48.033Z,2794
2023-04-09T11:32:58.051Z,3003
2023-04-09T11:38:06.262Z,2244
2023-04-09T11:43:16.083Z,1771
2023-04-09T11:48:25.300Z,1909
2023-04-09T11:53:34.894Z,1916
2023-04-09T11:58:43.389Z,2074
2023-04-09T12:03:52.738Z,2260
2023-04-09T12:09:01.619Z,2035
2023-04-09T12:14:10.146Z,2347
2023-04-09T12:21:25.348Z,2593
2023-04-09T12:26:35.706Z,3252
2023-04-09T12:31:45.740Z,3512
2023-04-09T12:36:55.853Z,2463
2023-04-09T12:42:06.270Z,2627
2023-04-09T12:47:16.693Z,1933
2023-04-09T12:52:26.413Z,1883
2023-04-09T12:57:37.477Z,2025
2023-04-09T13:02:47.967Z,3236
2023-04-09T13:07:57.615Z,2602
2023-04-09T13:13:06.114Z,3398
2023-04-09T13:18:15.260Z,3293
2023-04-09T13:23:23.072Z,3068
2023-04-09T13:28:32.180Z,2275
2023-04-09T13:33:41.301Z,2213
2023-04-09T13:38:51.495Z,2561
2023-04-09T13:44:00.224Z,2629
2023-04-09T13:49:09.956Z,2927
2023-04-09T13:54:19.697Z,3005
2023-04-09T13:59:28.840Z,2418
2023-04-09T14:04:38.768Z,2201
2023-04-09T14:09:47.719Z,2624
2023-04-09T14:14:56.833Z,2349
2023-04-09T14:20:05.977Z,2351
2023-04-09T14:25:14.442Z,1946
2023-04-09T14:30:24.176Z,2412
2023-04-09T14:35:34.135Z,2138
2023-04-09T14:40:43.056Z,1710
2023-04-09T14:45:51.534Z,1724
2023-04-09T14:51:01.374Z,1810
2023-04-09T14:56:09.798Z,1474
2023-04-09T15:01:19.653Z,1162
2023-04-09T15:06:28.647Z,1030
2023-04-09T15:11:38.419Z,1058
2023-04-09T15:16:47.137Z,1085
2023-04-09T15:21:56.660Z,1528
2023-04-09T15:27:07.078Z,1064
2023-04-09T15:32:16.217Z,1028
2023-04-09T15:37:25.310Z,969
2023-04-09T15:42:33.151Z,1205
2023-04-09T15:47:42.426Z,1373
2023-04-09T15:52:52.021Z,1372
2023-04-09T15:58:01.796Z,1330
2023-04-09T16:03:10.273Z,1246
2023-04-09T16:08:20.681Z,1089
2023-04-09T16:13:29.146Z,982
2023-04-09T16:18:37.639Z,734
2023-04-09T16:23:47.385Z,851
2023-04-09T16:28:57.138Z,871
2023-04-09T16:34:05.726Z,821
2023-04-09T16:39:14.096Z,720
2023-04-09T16:44:23.855Z,598
2023-04-09T16:49:33.615Z,561
2023-04-09T16:54:42.090Z,491
2023-04-09T16:59:50.575Z,525
2023-04-09T17:05:00.369Z,501
2023-04-09T17:10:08.795Z,470
2023-04-09T17:15:19.232Z,447
2023-04-09T17:20:27.696Z,425
2023-04-09T17:25:36.835Z,390
2023-04-09T17:30:45.502Z,341
2023-04-09T17:35:55.841Z,291
2023-04-09T17:41:07.882Z,274
2023-04-09T17:46:14.894Z,217
2023-04-09T17:51:24.359Z,184
2023-04-09T17:56:34.103Z,148
2023-04-09T18:01:44.385Z,115
2023-04-09T18:06:52.336Z,87
2023-04-09T18:12:01.530Z,55
2023-04-09T18:17:11.242Z,33
2023-04-09T18:22:19.729Z,19
2023-04-09T18:27:29.457Z,10
2023-04-09T18:32:38.121Z,4
2023-04-09T18:37:47.698Z,1
2023-04-09T18:42:56.864Z,0
2023-04-09T18:48:06.786Z,0
2023-04-09T18:53:15.706Z,0
2023-04-09T18:58:24.197Z,0
2023-04-09T19:03:34.081Z,0
2023-04-09T19:08:42.433Z,0
2023-04-09T19:13:52.198Z,0
2023-04-09T19:19:02.044Z,0
2023-04-09T19:24:11.064Z,0
2023-04-09T19:29:20.187Z,0
2023-04-09T19:34:29.323Z,0
2023-04-09T19:39:39.072Z,0
2023-04-09T19:44:47.554Z,0
2023-04-09T19:49:57.935Z,0
2023-04-09T19:55:06.444Z,0
2023-04-09T20:00:16.213Z,0
2023-04-09T20:05:24.678Z,0
2023-04-09T20:10:34.441Z,0
2023-04-09T20:15:44.197Z,0
2023-04-09T20:20:53.967Z,0
2023-04-09T20:26:04.992Z,0
2023-04-09T20:31:14.749Z,0
2023-04-09T20:36:24.507Z,0
2023-04-09T20:41:32.977Z,0
2023-04-09T20:46:42.764Z,0
2023-04-09T20:51:51.968Z,0
2023-04-09T20:57:00.386Z,0
2023-04-09T21:02:10.596Z,0
2023-04-09T21:07:19.864Z,0
2023-04-09T21:12:29.636Z,0
2023-04-09T21:17:38.294Z,0
2023-04-09T21:22:45.944Z,0
2023-04-09T21:27:54.504Z,0
2023-04-09T21:33:03.801Z,0
2023-04-09T21:38:13.357Z,0
2023-04-09T21:43:21.185Z,0
2023-04-09T21:48:30.930Z,0
2023-04-09T21:53:40.709Z,0
2023-04-09T21:58:49.150Z,0
2023-04-09T22:03:58.018Z,0
2023-04-09T22:09:06.807Z,0
2023-04-09T22:14:15.240Z,0
2023-04-09T22:19:23.708Z,0
2023-04-09T22:24:32.809Z,0
2023-04-09T22:29:42.621Z,0
2023-04-09T22:34:51.707Z,0
2023-04-09T22:40:01.484Z,0
2023-04-09T22:45:11.324Z,0
2023-04-09T22:50:19.717Z,0
2023-04-09T22:55:28.840Z,0
2023-04-09T23:00:37.944Z,0
2023-04-09T23:05:47.744Z,0
2023-04-09T23:10:56.280Z,0
2023-04-09T23:16:04.806Z,0
2023-04-09T23:21:13.209Z,0
2023-04-09T23:26:22.947Z,0
2023-04-09T23:31:32.924Z,0
2023-04-09T23:36:42.480Z,0
2023-04-09T23:41:52.195Z,0
2023-04-09T23:47:01.630Z,0
2023-04-09T23:52:10.443Z,0
2023-04-09T23:57:20.188Z,0
